sensor_id;sensor_type;location;lat;lon;timestamp;pressure;altitude;pressure_sealevel;temperature;humidity
67434;BME280;54305;47.950;6.572;2023-02-02T00:01:30;95375.78;;;1.29;100.00
67434;BME280;54305;47.950;6.572;2023-02-02T00:03:55;95369.84;;;1.29;100.00
67434;BME280;54305;47.950;6.572;2023-02-02T00:06:22;95378.13;;;1.34;100.00
67434;BME280;54305;47.950;6.572;2023-02-02T00:08:47;95377.28;;;1.33;100.00
67434;BME280;54305;47.950;6.572;2023-02-02T00:11:13;95384.31;;;1.30;100.00
67434;BME280;54305;47.950;6.572;2023-02-02T00:13:38;95383.91;;;1.37;100.00
67434;BME280;54305;47.950;6.572;2023-02-02T00:18:47;95376.13;;;1.39;100.00
67434;BME280;54305;47.950;6.572;2023-02-02T00:21:13;95382.09;;;1.39;100.00
67434;BME280;54305;47.950;6.572;2023-02-02T00:23:38;95373.47;;;1.40;100.00
67434;BME280;54305;47.950;6.572;2023-02-02T00:26:04;95375.81;;;1.45;100.00
67434;BME280;54305;47.950;6.572;2023-02-02T00:28:29;95379.09;;;1.47;100.00
67434;BME280;54305;47.950;6.572;2023-02-02T00:30:54;95373.97;;;1.47;100.00
67434;BME280;54305;47.950;6.572;2023-02-02T00:33:19;95377.31;;;1.49;100.00
67434;BME280;54305;47.950;6.572;2023-02-02T00:35:45;95382.44;;;1.49;100.00
67434;BME280;54305;47.950;6.572;2023-02-02T00:38:10;95380.78;;;1.48;100.00
67434;BME280;54305;47.950;6.572;2023-02-02T00:40:35;95389.97;;;1.52;100.00
67434;BME280;54305;47.950;6.572;2023-02-02T00:43:00;95377.81;;;1.55;100.00
67434;BME280;54305;47.950;6.572;2023-02-02T00:45:26;95382.09;;;1.55;100.00
67434;BME280;54305;47.950;6.572;2023-02-02T00:47:51;95383.75;;;1.56;100.00
67434;BME280;54305;47.950;6.572;2023-02-02T00:50:17;95371.00;;;1.54;100.00
67434;BME280;54305;47.950;6.572;2023-02-02T00:52:46;95381.19;;;1.56;100.00
67434;BME280;54305;47.950;6.572;2023-02-02T00:55:12;95380.47;;;1.54;100.00
67434;BME280;54305;47.950;6.572;2023-02-02T00:57:38;95371.84;;;1.55;100.00
67434;BME280;54305;47.950;6.572;2023-02-02T01:00:05;95381.75;;;1.61;100.00
67434;BME280;54305;47.950;6.572;2023-02-02T01:02:31;95371.69;;;1.58;100.00
67434;BME280;54305;47.950;6.572;2023-02-02T01:04:57;95374.13;;;1.59;100.00
67434;BME280;54305;47.950;6.572;2023-02-02T01:07:22;95378.47;;;1.59;100.00
67434;BME280;54305;47.950;6.572;2023-02-02T01:09:47;95378.03;;;1.51;100.00
67434;BME280;54305;47.950;6.572;2023-02-02T01:12:13;95370.34;;;1.51;100.00
67434;BME280;54305;47.950;6.572;2023-02-02T01:14:38;95378.81;;;1.53;100.00
67434;BME280;54305;47.950;6.572;2023-02-02T01:17:03;95378.97;;;1.50;100.00
67434;BME280;54305;47.950;6.572;2023-02-02T01:19:29;95389.22;;;1.50;100.00
67434;BME280;54305;47.950;6.572;2023-02-02T01:21:55;95395.00;;;1.53;100.00
67434;BME280;54305;47.950;6.572;2023-02-02T01:24:20;95398.41;;;1.54;100.00
67434;BME280;54305;47.950;6.572;2023-02-02T01:26:45;95404.47;;;1.53;100.00
67434;BME280;54305;47.950;6.572;2023-02-02T01:29:10;95403.78;;;1.49;100.00
67434;BME280;54305;47.950;6.572;2023-02-02T01:31:36;95404.63;;;1.50;100.00
67434;BME280;54305;47.950;6.572;2023-02-02T01:34:01;95409.25;;;1.43;100.00
67434;BME280;54305;47.950;6.572;2023-02-02T01:36:27;95413.38;;;1.46;100.00
67434;BME280;54305;47.950;6.572;2023-02-02T01:38:52;95413.38;;;1.46;100.00
67434;BME280;54305;47.950;6.572;2023-02-02T01:41:19;95418.69;;;1.43;100.00
67434;BME280;54305;47.950;6.572;2023-02-02T01:46:10;95408.09;;;1.49;100.00
67434;BME280;54305;47.950;6.572;2023-02-02T01:48:36;95413.25;;;1.49;100.00
67434;BME280;54305;47.950;6.572;2023-02-02T01:51:03;95408.09;;;1.49;100.00
67434;BME280;54305;47.950;6.572;2023-02-02T01:53:30;95405.09;;;1.41;100.00
67434;BME280;54305;47.950;6.572;2023-02-02T01:55:56;95401.63;;;1.42;100.00
67434;BME280;54305;47.950;6.572;2023-02-02T01:58:23;95400.81;;;1.41;100.00
67434;BME280;54305;47.950;6.572;2023-02-02T02:00:51;95393.03;;;1.43;100.00
67434;BME280;54305;47.950;6.572;2023-02-02T02:03:18;95395.69;;;1.41;100.00
67434;BME280;54305;47.950;6.572;2023-02-02T02:08:30;95400.56;;;1.46;100.00
67434;BME280;54305;47.950;6.572;2023-02-02T02:10:56;95389.22;;;1.50;100.00
67434;BME280;54305;47.950;6.572;2023-02-02T02:13:22;95386.50;;;1.53;100.00
67434;BME280;54305;47.950;6.572;2023-02-02T02:16:19;95393.22;;;1.55;100.00
67434;BME280;54305;47.950;6.572;2023-02-02T02:40:39;95386.66;;;1.50;100.00
67434;BME280;54305;47.950;6.572;2023-02-02T02:43:07;95381.19;;;1.56;100.00
67434;BME280;54305;47.950;6.572;2023-02-02T02:45:34;95383.69;;;1.57;100.00
67434;BME280;54305;47.950;6.572;2023-02-02T02:48:01;95381.94;;;1.58;100.00
67434;BME280;54305;47.950;6.572;2023-02-02T02:50:27;95390.53;;;1.57;100.00
67434;BME280;54305;47.950;6.572;2023-02-02T02:52:55;95388.88;;;1.56;100.00
67434;BME280;54305;47.950;6.572;2023-02-02T02:55:23;95388.06;;;1.55;100.00
67434;BME280;54305;47.950;6.572;2023-02-02T02:58:06;95383.75;;;1.56;100.00
67434;BME280;54305;47.950;6.572;2023-02-02T03:05:43;95387.09;;;1.58;100.00
67434;BME280;54305;47.950;6.572;2023-02-02T03:08:18;95381.94;;;1.58;100.00
67434;BME280;54305;47.950;6.572;2023-02-02T03:10:44;95385.41;;;1.57;100.00
67434;BME280;54305;47.950;6.572;2023-02-02T03:13:11;95380.19;;;1.58;100.00
67434;BME280;54305;47.950;6.572;2023-02-02T03:15:40;95393.88;;;1.59;100.00
67434;BME280;54305;47.950;6.572;2023-02-02T03:18:06;95393.38;;;1.52;100.00
67434;BME280;54305;47.950;6.572;2023-02-02T03:20:31;95395.66;;;1.57;100.00
67434;BME280;54305;47.950;6.572;2023-02-02T03:22:57;95399.16;;;1.56;100.00
67434;BME280;54305;47.950;6.572;2023-02-02T03:25:22;95400.81;;;1.57;100.00
67434;BME280;54305;47.950;6.572;2023-02-02T03:27:48;95395.66;;;1.57;100.00
67434;BME280;54305;47.950;6.572;2023-02-02T03:30:14;95397.34;;;1.58;100.00
67434;BME280;54305;47.950;6.572;2023-02-02T03:32:39;95397.50;;;1.55;100.00
67434;BME280;54305;47.950;6.572;2023-02-02T03:35:05;95406.13;;;1.54;100.00
67434;BME280;54305;47.950;6.572;2023-02-02T03:37:31;95413.91;;;1.52;100.00
67434;BME280;54305;47.950;6.572;2023-02-02T03:39:56;95408.84;;;1.51;100.00
67434;BME280;54305;47.950;6.572;2023-02-02T03:42:21;95415.53;;;1.53;100.00
67434;BME280;54305;47.950;6.572;2023-02-02T03:44:46;95409.59;;;1.53;100.00
67434;BME280;54305;47.950;6.572;2023-02-02T03:47:15;95410.41;;;1.53;100.00
67434;BME280;54305;47.950;6.572;2023-02-02T03:49:40;95405.34;;;1.52;100.00
67434;BME280;54305;47.950;6.572;2023-02-02T03:52:05;95402.97;;;1.49;100.00
67434;BME280;54305;47.950;6.572;2023-02-02T03:54:30;95398.84;;;1.46;100.00
67434;BME280;54305;47.950;6.572;2023-02-02T03:56:56;95406.47;;;1.48;100.00
67434;BME280;54305;47.950;6.572;2023-02-02T03:59:21;95404.47;;;1.53;100.00
67434;BME280;54305;47.950;6.572;2023-02-02T04:01:46;95405.47;;;1.50;100.00
67434;BME280;54305;47.950;6.572;2023-02-02T04:04:12;95413.81;;;1.54;100.00
67434;BME280;54305;47.950;6.572;2023-02-02T04:06:37;95422.44;;;1.53;100.00
67434;BME280;54305;47.950;6.572;2023-02-02T04:09:05;95418.88;;;1.55;100.00
67434;BME280;54305;47.950;6.572;2023-02-02T04:11:30;95416.47;;;1.52;100.00
67434;BME280;54305;47.950;6.572;2023-02-02T04:13:55;95409.59;;;1.53;100.00
67434;BME280;54305;47.950;6.572;2023-02-02T04:16:21;95420.59;;;1.55;100.00
67434;BME280;54305;47.950;6.572;2023-02-02T04:18:46;95418.19;;;1.52;100.00
67434;BME280;54305;47.950;6.572;2023-02-02T04:21:11;95418.19;;;1.52;100.00
67434;BME280;54305;47.950;6.572;2023-02-02T04:23:37;95416.38;;;1.54;100.00
67434;BME280;54305;47.950;6.572;2023-02-02T04:26:02;95414.75;;;1.53;100.00
67434;BME280;54305;47.950;6.572;2023-02-02T04:28:28;95404.47;;;1.53;100.00
67434;BME280;54305;47.950;6.572;2023-02-02T04:30:53;95404.63;;;1.50;100.00
67434;BME280;54305;47.950;6.572;2023-02-02T04:33:19;95407.19;;;1.50;100.00
67434;BME280;54305;47.950;6.572;2023-02-02T04:35:45;95401.13;;;1.51;100.00
67434;BME280;54305;47.950;6.572;2023-02-02T04:38:11;95396.94;;;1.50;100.00
67434;BME280;54305;47.950;6.572;2023-02-02T04:40:39;95401.13;;;1.51;100.00
67434;BME280;54305;47.950;6.572;2023-02-02T04:43:04;95400.16;;;1.53;100.00
67434;BME280;54305;47.950;6.572;2023-02-02T04:45:30;95401.91;;;1.53;100.00
67434;BME280;54305;47.950;6.572;2023-02-02T04:47:55;95411.91;;;1.57;100.00
67434;BME280;54305;47.950;6.572;2023-02-02T04:50:20;95424.69;;;1.59;100.00
67434;BME280;54305;47.950;6.572;2023-02-02T04:52:45;95426.31;;;1.60;100.00
67434;BME280;54305;47.950;6.572;2023-02-02T04:55:11;95428.16;;;1.58;100.00
67434;BME280;54305;47.950;6.572;2023-02-02T04:57:36;95431.59;;;1.57;100.00
67434;BME280;54305;47.950;6.572;2023-02-02T05:00:02;95428.16;;;1.58;100.00
67434;BME280;54305;47.950;6.572;2023-02-02T05:02:27;95436.91;;;1.54;100.00
67434;BME280;54305;47.950;6.572;2023-02-02T05:04:52;95427.00;;;1.48;100.00
67434;BME280;54305;47.950;6.572;2023-02-02T05:07:18;95430.28;;;1.50;100.00
67434;BME280;54305;47.950;6.572;2023-02-02T05:09:43;95426.81;;;1.51;100.00
67434;BME280;54305;47.950;6.572;2023-02-02T05:12:08;95429.28;;;1.52;100.00
67434;BME280;54305;47.950;6.572;2023-02-02T05:14:33;95427.47;;;1.54;100.00
67434;BME280;54305;47.950;6.572;2023-02-02T05:16:59;95427.56;;;1.53;100.00
67434;BME280;54305;47.950;6.572;2023-02-02T05:19:24;95430.13;;;1.53;100.00
67434;BME280;54305;47.950;6.572;2023-02-02T05:21:49;95427.38;;;1.56;100.00
67434;BME280;54305;47.950;6.572;2023-02-02T05:24:14;95428.47;;;1.52;100.00
67434;BME280;54305;47.950;6.572;2023-02-02T05:26:40;95420.59;;;1.55;100.00
67434;BME280;54305;47.950;6.572;2023-02-02T05:29:05;95426.66;;;1.54;100.00
67434;BME280;54305;47.950;6.572;2023-02-02T05:31:31;95434.34;;;1.54;100.00
67434;BME280;54305;47.950;6.572;2023-02-02T05:33:56;95430.94;;;1.53;100.00
67434;BME280;54305;47.950;6.572;2023-02-02T05:36:22;95440.22;;;1.56;100.00
67434;BME280;54305;47.950;6.572;2023-02-02T05:38:47;95437.66;;;1.56;100.00
67434;BME280;54305;47.950;6.572;2023-02-02T05:41:12;95430.94;;;1.53;100.00
67434;BME280;54305;47.950;6.572;2023-02-02T05:43:37;95446.34;;;1.53;100.00
67434;BME280;54305;47.950;6.572;2023-02-02T05:46:03;95447.00;;;1.57;100.00
67434;BME280;54305;47.950;6.572;2023-02-02T05:48:28;95455.47;;;1.59;100.00
67434;BME280;54305;47.950;6.572;2023-02-02T05:51:36;95448.69;;;1.58;100.00
67434;BME280;54305;47.950;6.572;2023-02-02T05:53:42;95452.97;;;1.57;100.00
67434;BME280;54305;47.950;6.572;2023-02-02T05:56:09;95455.63;;;1.56;100.00
67434;BME280;54305;47.950;6.572;2023-02-02T05:58:34;95458.13;;;1.57;100.00
67434;BME280;54305;47.950;6.572;2023-02-02T06:01:00;95454.81;;;1.55;100.00
67434;BME280;54305;47.950;6.572;2023-02-02T06:03:26;95457.47;;;1.54;100.00
67434;BME280;54305;47.950;6.572;2023-02-02T06:05:51;95459.09;;;1.55;100.00
67434;BME280;54305;47.950;6.572;2023-02-02T06:08:17;95461.59;;;1.56;100.00
67434;BME280;54305;47.950;6.572;2023-02-02T06:10:42;95467.53;;;1.57;100.00
67434;BME280;54305;47.950;6.572;2023-02-02T06:13:07;95460.59;;;1.59;100.00
67434;BME280;54305;47.950;6.572;2023-02-02T06:15:33;95460.59;;;1.59;100.00
67434;BME280;54305;47.950;6.572;2023-02-02T06:18:01;95461.53;;;1.58;100.00
67434;BME280;54305;47.950;6.572;2023-02-02T06:20:26;95458.78;;;1.61;100.00
67434;BME280;54305;47.950;6.572;2023-02-02T06:22:52;95468.13;;;1.62;100.00
67434;BME280;54305;47.950;6.572;2023-02-02T06:25:17;95464.81;;;1.60;100.00
67434;BME280;54305;47.950;6.572;2023-02-02T06:27:42;95473.84;;;1.67;100.00
67434;BME280;54305;47.950;6.572;2023-02-02T06:30:10;95459.69;;;1.60;100.00
67434;BME280;54305;47.950;6.572;2023-02-02T06:32:36;95463.91;;;1.61;100.00
67434;BME280;54305;47.950;6.572;2023-02-02T06:35:01;95466.56;;;1.59;100.00
67434;BME280;54305;47.950;6.572;2023-02-02T06:37:26;95466.31;;;1.64;100.00
67434;BME280;54305;47.950;6.572;2023-02-02T06:39:51;95465.56;;;1.62;100.00
67434;BME280;54305;47.950;6.572;2023-02-02T06:42:17;95457.13;;;1.60;100.00
67434;BME280;54305;47.950;6.572;2023-02-02T06:44:42;95458.78;;;1.61;100.00
67434;BME280;54305;47.950;6.572;2023-02-02T06:47:07;95447.00;;;1.57;100.00
67434;BME280;54305;47.950;6.572;2023-02-02T06:49:35;95455.28;;;1.62;100.00
67434;BME280;54305;47.950;6.572;2023-02-02T06:52:00;95461.94;;;1.66;100.00
67434;BME280;54305;47.950;6.572;2023-02-02T06:54:26;95467.25;;;1.63;100.00
67434;BME280;54305;47.950;6.572;2023-02-02T06:56:51;95464.81;;;1.60;100.00
67434;BME280;54305;47.950;6.572;2023-02-02T06:59:16;95459.63;;;1.61;100.00
67434;BME280;54305;47.950;6.572;2023-02-02T07:01:42;95465.50;;;1.63;100.00
67434;BME280;54305;47.950;6.572;2023-02-02T07:04:07;95473.69;;;1.70;100.00
67434;BME280;54305;47.950;6.572;2023-02-02T07:06:32;95479.09;;;1.65;100.00
67434;BME280;54305;47.950;6.572;2023-02-02T07:08:59;95478.19;;;1.66;100.00
67434;BME280;54305;47.950;6.572;2023-02-02T07:11:24;95472.19;;;1.66;100.00
67434;BME280;54305;47.950;6.572;2023-02-02T07:13:49;95466.31;;;1.64;100.00
67434;BME280;54305;47.950;6.572;2023-02-02T07:16:15;95468.91;;;1.64;100.00
67434;BME280;54305;47.950;6.572;2023-02-02T07:18:41;95483.38;;;1.65;100.00
67434;BME280;54305;47.950;6.572;2023-02-02T07:21:07;95485.03;;;1.66;100.00
67434;BME280;54305;47.950;6.572;2023-02-02T07:23:33;95486.69;;;1.67;100.00
67434;BME280;54305;47.950;6.572;2023-02-02T07:26:05;95479.16;;;1.64;100.00
67434;BME280;54305;47.950;6.572;2023-02-02T07:28:31;95482.31;;;1.69;100.00
67434;BME280;54305;47.950;6.572;2023-02-02T07:30:57;95487.44;;;1.69;100.00
67434;BME280;54305;47.950;6.572;2023-02-02T07:33:22;95488.19;;;1.71;100.00
67434;BME280;54305;47.950;6.572;2023-02-02T07:35:48;95485.63;;;1.71;100.00
67434;BME280;54305;47.950;6.572;2023-02-02T07:38:13;95485.81;;;1.68;100.00
67434;BME280;54305;47.950;6.572;2023-02-02T07:40:38;95497.56;;;1.72;100.00
67434;BME280;54305;47.950;6.572;2023-02-02T07:43:04;95502.72;;;1.72;100.00
67434;BME280;54305;47.950;6.572;2023-02-02T07:45:29;95494.25;;;1.70;100.00
67434;BME280;54305;47.950;6.572;2023-02-02T07:47:55;95499.38;;;1.70;100.00
67434;BME280;54305;47.950;6.572;2023-02-02T07:50:21;95505.44;;;1.69;100.00
67434;BME280;54305;47.950;6.572;2023-02-02T07:52:46;95499.38;;;1.70;100.00
67434;BME280;54305;47.950;6.572;2023-02-02T07:55:11;95504.38;;;1.73;100.00
67434;BME280;54305;47.950;6.572;2023-02-02T07:57:37;95507.84;;;1.72;100.00
67434;BME280;54305;47.950;6.572;2023-02-02T08:00:02;95499.03;;;1.76;100.00
67434;BME280;54305;47.950;6.572;2023-02-02T08:02:27;95505.50;;;1.67;100.00
67434;BME280;54305;47.950;6.572;2023-02-02T08:04:53;95504.38;;;1.73;100.00
67434;BME280;54305;47.950;6.572;2023-02-02T08:07:18;95505.44;;;1.69;100.00
67434;BME280;54305;47.950;6.572;2023-02-02T08:09:45;95504.59;;;1.68;100.00
67434;BME280;54305;47.950;6.572;2023-02-02T08:12:12;95496.97;;;1.67;100.00
67434;BME280;54305;47.950;6.572;2023-02-02T08:14:37;95505.16;;;1.73;100.00
67434;BME280;54305;47.950;6.572;2023-02-02T08:17:02;95495.00;;;1.72;100.00
67434;BME280;54305;47.950;6.572;2023-02-02T08:19:27;95498.38;;;1.72;100.00
67434;BME280;54305;47.950;6.572;2023-02-02T08:21:53;95496.88;;;1.68;100.00
67434;BME280;54305;47.950;6.572;2023-02-02T08:24:18;95482.94;;;1.57;100.00
67434;BME280;54305;47.950;6.572;2023-02-02T08:26:43;95497.88;;;1.66;100.00
67434;BME280;54305;47.950;6.572;2023-02-02T08:29:09;95503.53;;;1.72;100.00
67434;BME280;54305;47.950;6.572;2023-02-02T08:31:43;95497.56;;;1.72;100.00
67434;BME280;54305;47.950;6.572;2023-02-02T08:34:09;95500.88;;;1.74;100.00
67434;BME280;54305;47.950;6.572;2023-02-02T08:36:35;95499.03;;;1.76;100.00
67434;BME280;54305;47.950;6.572;2023-02-02T08:39:02;95494.91;;;1.73;100.00
67434;BME280;54305;47.950;6.572;2023-02-02T08:41:28;95492.25;;;1.75;100.00
67434;BME280;54305;47.950;6.572;2023-02-02T08:43:53;95493.75;;;1.79;100.00
67434;BME280;54305;47.950;6.572;2023-02-02T08:46:19;95493.75;;;1.79;100.00
67434;BME280;54305;47.950;6.572;2023-02-02T08:48:45;95507.03;;;1.87;100.00
67434;BME280;54305;47.950;6.572;2023-02-02T08:51:11;95507.19;;;1.84;100.00
67434;BME280;54305;47.950;6.572;2023-02-02T08:53:38;95502.19;;;1.81;100.00
67434;BME280;54305;47.950;6.572;2023-02-02T08:56:08;95495.25;;;1.83;100.00
67434;BME280;54305;47.950;6.572;2023-02-02T08:58:35;95503.88;;;1.82;100.00
67434;BME280;54305;47.950;6.572;2023-02-02T09:03:29;95511.19;;;1.89;100.00
67434;BME280;54305;47.950;6.572;2023-02-02T09:05:54;95512.00;;;1.90;100.00
67434;BME280;54305;47.950;6.572;2023-02-02T09:08:20;95518.97;;;1.88;100.00
67434;BME280;54305;47.950;6.572;2023-02-02T09:10:45;95526.66;;;1.88;100.00
67434;BME280;54305;47.950;6.572;2023-02-02T09:13:10;95532.53;;;1.90;100.00
67434;BME280;54305;47.950;6.572;2023-02-02T09:15:36;95527.06;;;1.96;100.00
67434;BME280;54305;47.950;6.572;2023-02-02T09:18:02;95542.66;;;1.93;100.00
67434;BME280;54305;47.950;6.572;2023-02-02T09:20:28;95556.09;;;1.98;100.00
67434;BME280;54305;47.950;6.572;2023-02-02T09:22:56;95559.72;;;1.94;100.00
67434;BME280;54305;47.950;6.572;2023-02-02T09:25:21;95564.78;;;1.95;100.00
67434;BME280;54305;47.950;6.572;2023-02-02T09:27:48;95559.41;;;2.00;100.00
67434;BME280;54305;47.950;6.572;2023-02-02T09:30:16;95561.72;;;1.89;100.00
67434;BME280;54305;47.950;6.572;2023-02-02T09:32:41;95558.16;;;1.91;100.00
67434;BME280;54305;47.950;6.572;2023-02-02T09:35:09;95563.22;;;1.93;100.00
67434;BME280;54305;47.950;6.572;2023-02-02T09:37:34;95554.75;;;1.91;100.00
67434;BME280;54305;47.950;6.572;2023-02-02T09:39:59;95560.72;;;1.91;100.00
67434;BME280;54305;47.950;6.572;2023-02-02T09:45:17;95567.88;;;2.02;100.00
67434;BME280;54305;47.950;6.572;2023-02-02T09:47:50;95578.28;;;1.99;100.00
67434;BME280;54305;47.950;6.572;2023-02-02T09:50:37;95576.50;;;2.01;100.00
67434;BME280;54305;47.950;6.572;2023-02-02T09:53:14;95583.28;;;2.02;100.00
67434;BME280;54305;47.950;6.572;2023-02-02T09:55:45;95591.22;;;1.97;100.00
67434;BME280;54305;47.950;6.572;2023-02-02T10:00:38;95602.31;;;1.98;100.00
67434;BME280;54305;47.950;6.572;2023-02-02T10:03:09;95603.84;;;2.02;100.00
67434;BME280;54305;47.950;6.572;2023-02-02T10:08:35;95615.91;;;2.00;100.00
67434;BME280;54305;47.950;6.572;2023-02-02T10:11:18;95606.47;;;2.00;100.00
67434;BME280;54305;47.950;6.572;2023-02-02T10:13:47;95605.50;;;2.03;100.00
67434;BME280;54305;47.950;6.572;2023-02-02T10:16:15;95613.03;;;2.06;100.00
67434;BME280;54305;47.950;6.572;2023-02-02T10:21:20;95621.16;;;2.14;100.00
67434;BME280;54305;47.950;6.572;2023-02-02T10:23:48;95619.06;;;2.05;100.00
67434;BME280;54305;47.950;6.572;2023-02-02T10:26:21;95624.06;;;2.08;100.00
67434;BME280;54305;47.950;6.572;2023-02-02T10:31:58;95623.72;;;2.14;100.00
67434;BME280;54305;47.950;6.572;2023-02-02T10:34:06;95624.66;;;2.13;100.00
67434;BME280;54305;47.950;6.572;2023-02-02T10:42:05;95629.88;;;2.11;100.00
67434;BME280;54305;47.950;6.572;2023-02-02T10:47:08;95635.53;;;2.18;100.00
67434;BME280;54305;47.950;6.572;2023-02-02T10:49:38;95643.31;;;2.16;100.00
67434;BME280;54305;47.950;6.572;2023-02-02T10:57:23;95629.47;;;2.19;100.00
67434;BME280;54305;47.950;6.572;2023-02-02T11:00:00;95632.03;;;2.19;100.00
67434;BME280;54305;47.950;6.572;2023-02-02T11:02:29;95623.59;;;2.17;100.00
67434;BME280;54305;47.950;6.572;2023-02-02T11:04:55;95621.75;;;2.19;100.00
67434;BME280;54305;47.950;6.572;2023-02-02T11:07:39;95619.03;;;2.22;100.00
67434;BME280;54305;47.950;6.572;2023-02-02T11:10:04;95618.78;;;2.26;100.00
67434;BME280;54305;47.950;6.572;2023-02-02T11:12:31;95616.47;;;2.22;100.00
67434;BME280;54305;47.950;6.572;2023-02-02T11:15:07;95615.28;;;2.27;100.00
67434;BME280;54305;47.950;6.572;2023-02-02T11:17:46;95611.16;;;2.25;100.00
67434;BME280;54305;47.950;6.572;2023-02-02T11:20:22;95599.06;;;2.27;100.00
67434;BME280;54305;47.950;6.572;2023-02-02T11:22:54;95592.84;;;2.31;100.00
67434;BME280;54305;47.950;6.572;2023-02-02T11:25:27;95592.38;;;2.40;100.00
67434;BME280;54305;47.950;6.572;2023-02-02T11:27:56;95597.75;;;2.51;100.00
67434;BME280;54305;47.950;6.572;2023-02-02T11:30:34;95600.56;;;2.62;100.00
67434;BME280;54305;47.950;6.572;2023-02-02T11:35:57;95607.22;;;2.66;100.00
67434;BME280;54305;47.950;6.572;2023-02-02T11:38:23;95601.56;;;2.75;100.00
67434;BME280;54305;47.950;6.572;2023-02-02T11:40:53;95590.69;;;2.54;100.00
67434;BME280;54305;47.950;6.572;2023-02-02T11:46:21;95595.09;;;2.68;100.00
67434;BME280;54305;47.950;6.572;2023-02-02T11:49:11;95603.81;;;2.65;100.00
67434;BME280;54305;47.950;6.572;2023-02-02T11:51:40;95597.69;;;2.52;100.00
67434;BME280;54305;47.950;6.572;2023-02-02T11:54:13;95590.13;;;2.49;100.00
67434;BME280;54305;47.950;6.572;2023-02-02T11:56:40;95596.09;;;2.50;100.00
67434;BME280;54305;47.950;6.572;2023-02-02T11:59:08;95588.91;;;2.56;100.00
67434;BME280;54305;47.950;6.572;2023-02-02T12:01:50;95596.69;;;2.55;100.00
67434;BME280;54305;47.950;6.572;2023-02-02T12:06:41;95594.13;;;2.55;100.00
67434;BME280;54305;47.950;6.572;2023-02-02T12:09:12;95591.53;;;2.55;100.00
67434;BME280;54305;47.950;6.572;2023-02-02T12:19:19;95586.31;;;2.56;100.00
67434;BME280;54305;47.950;6.572;2023-02-02T12:22:00;95590.63;;;2.56;100.00
67434;BME280;54305;47.950;6.572;2023-02-02T12:24:33;95590.13;;;2.65;100.00
67434;BME280;54305;47.950;6.572;2023-02-02T12:27:12;95591.63;;;2.69;100.00
67434;BME280;54305;47.950;6.572;2023-02-02T12:29:47;95601.72;;;2.72;100.00
67434;BME280;54305;47.950;6.572;2023-02-02T12:32:49;95593.84;;;2.75;100.00
67434;BME280;54305;47.950;6.572;2023-02-02T12:37:51;95597.94;;;2.79;100.00
67434;BME280;54305;47.950;6.572;2023-02-02T12:40:23;95594.59;;;2.77;100.00
67434;BME280;54305;47.950;6.572;2023-02-02T12:45:32;95604.38;;;2.86;100.00
67434;BME280;54305;47.950;6.572;2023-02-02T12:51:04;95608.22;;;2.79;100.00
67434;BME280;54305;47.950;6.572;2023-02-02T12:53:37;95602.56;;;2.88;100.00
67434;BME280;54305;47.950;6.572;2023-02-02T12:58:52;95604.53;;;2.83;100.00
67434;BME280;54305;47.950;6.572;2023-02-02T13:11:23;95587.03;;;2.89;100.00
67434;BME280;54305;47.950;6.572;2023-02-02T13:14:11;95598.56;;;2.98;100.00
67434;BME280;54305;47.950;6.572;2023-02-02T13:16:41;95583.63;;;2.89;100.00
67434;BME280;54305;47.950;6.572;2023-02-02T13:19:13;95591.75;;;2.97;100.00
67434;BME280;54305;47.950;6.572;2023-02-02T13:21:39;95589.69;;;2.88;100.00
67434;BME280;54305;47.950;6.572;2023-02-02T13:24:05;95584.56;;;2.88;100.00
67434;BME280;54305;47.950;6.572;2023-02-02T13:26:36;95584.28;;;2.92;100.00
67434;BME280;54305;47.950;6.572;2023-02-02T13:31:35;95585.13;;;2.93;100.00
67434;BME280;54305;47.950;6.572;2023-02-02T13:34:47;95588.94;;;2.86;100.00
67434;BME280;54305;47.950;6.572;2023-02-02T13:36:53;95594.09;;;2.86;100.00
67434;BME280;54305;47.950;6.572;2023-02-02T13:39:22;95592.16;;;2.89;100.00
67434;BME280;54305;47.950;6.572;2023-02-02T13:41:51;95583.97;;;2.83;100.00
67434;BME280;54305;47.950;6.572;2023-02-02T13:44:23;95587.53;;;2.80;100.00
67434;BME280;54305;47.950;6.572;2023-02-02T13:46:57;95594.25;;;2.83;100.00
67434;BME280;54305;47.950;6.572;2023-02-02T13:49:26;95583.50;;;2.76;100.00
67434;BME280;54305;47.950;6.572;2023-02-02T13:52:01;95593.09;;;2.88;100.00
67434;BME280;54305;47.950;6.572;2023-02-02T14:02:21;95594.50;;;2.94;100.00
67434;BME280;54305;47.950;6.572;2023-02-02T14:04:51;95596.06;;;2.96;100.00
67434;BME280;54305;47.950;6.572;2023-02-02T14:07:24;95598.56;;;2.98;100.00
67434;BME280;54305;47.950;6.572;2023-02-02T14:09:50;95599.56;;;2.95;100.00
67434;BME280;54305;47.950;6.572;2023-02-02T14:12:15;95597.81;;;2.96;100.00
67434;BME280;54305;47.950;6.572;2023-02-02T14:14:50;95601.88;;;3.00;100.00
67434;BME280;54305;47.950;6.572;2023-02-02T14:24:42;95609.50;;;3.01;100.00
67434;BME280;54305;47.950;6.572;2023-02-02T14:39:27;95620.31;;;3.08;100.00
67434;BME280;54305;47.950;6.572;2023-02-02T14:42:05;95613.16;;;3.13;100.00
67434;BME280;54305;47.950;6.572;2023-02-02T14:45:12;95616.09;;;3.21;100.00
67434;BME280;54305;47.950;6.572;2023-02-02T14:50:13;95617.59;;;3.25;100.00
67434;BME280;54305;47.950;6.572;2023-02-02T14:52:42;95621.25;;;3.21;100.00
67434;BME280;54305;47.950;6.572;2023-02-02T14:55:17;95615.03;;;3.25;100.00
67434;BME280;54305;47.950;6.572;2023-02-02T14:57:43;95620.44;;;3.20;100.00
67434;BME280;54305;47.950;6.572;2023-02-02T15:00:19;95614.44;;;3.20;100.00
67434;BME280;54305;47.950;6.572;2023-02-02T15:02:45;95619.59;;;3.20;100.00
67434;BME280;54305;47.950;6.572;2023-02-02T15:08:13;95619.09;;;3.13;100.00
67434;BME280;54305;47.950;6.572;2023-02-02T15:13:17;95626.75;;;3.15;100.00
67434;BME280;54305;47.950;6.572;2023-02-02T15:15:44;95635.53;;;3.11;100.00
67434;BME280;54305;47.950;6.572;2023-02-02T15:20:40;95642.88;;;3.03;100.00
67434;BME280;54305;47.950;6.572;2023-02-02T15:23:28;95641.63;;;2.94;100.00
67434;BME280;54305;47.950;6.572;2023-02-02T15:31:42;95642.34;;;3.12;100.00